sensor_id;sensor_type;location;lat;lon;timestamp;temperature;humidity
12811;DHT22;6470;47.654;7.896;2022-11-21T00:00:56;3.20;99.90
12811;DHT22;6470;47.654;7.896;2022-11-21T00:03:22;6.20;99.90
12811;DHT22;6470;47.654;7.896;2022-11-21T00:05:49;3.20;99.90
12811;DHT22;6470;47.654;7.896;2022-11-21T00:08:20;6.10;99.90
12811;DHT22;6470;47.654;7.896;2022-11-21T00:10:46;6.80;99.90
12811;DHT22;6470;47.654;7.896;2022-11-21T00:13:17;6.00;99.90
12811;DHT22;6470;47.654;7.896;2022-11-21T00:15:44;6.20;99.90
12811;DHT22;6470;47.654;7.896;2022-11-21T00:18:10;5.90;99.90
12811;DHT22;6470;47.654;7.896;2022-11-21T00:20:38;5.40;99.90
12811;DHT22;6470;47.654;7.896;2022-11-21T00:23:04;5.70;99.90
12811;DHT22;6470;47.654;7.896;2022-11-21T00:27:56;6.10;99.90
12811;DHT22;6470;47.654;7.896;2022-11-21T00:30:22;3.10;99.90
12811;DHT22;6470;47.654;7.896;2022-11-21T00:35:14;6.00;99.90
12811;DHT22;6470;47.654;7.896;2022-11-21T00:37:39;5.20;99.90
12811;DHT22;6470;47.654;7.896;2022-11-21T00:40:05;5.80;99.90
12811;DHT22;6470;47.654;7.896;2022-11-21T00:47:23;6.50;99.90
12811;DHT22;6470;47.654;7.896;2022-11-21T00:49:49;5.20;99.90
12811;DHT22;6470;47.654;7.896;2022-11-21T00:52:16;6.20;99.90
12811;DHT22;6470;47.654;7.896;2022-11-21T00:57:08;5.60;99.90
12811;DHT22;6470;47.654;7.896;2022-11-21T00:59:33;6.10;99.90
12811;DHT22;6470;47.654;7.896;2022-11-21T01:04:29;6.20;99.90
12811;DHT22;6470;47.654;7.896;2022-11-21T01:06:54;5.90;99.90
12811;DHT22;6470;47.654;7.896;2022-11-21T01:09:20;6.00;99.90
12811;DHT22;6470;47.654;7.896;2022-11-21T01:14:12;5.10;99.90
12811;DHT22;6470;47.654;7.896;2022-11-21T01:16:37;5.90;99.90
12811;DHT22;6470;47.654;7.896;2022-11-21T01:19:03;5.70;99.90
12811;DHT22;6470;47.654;7.896;2022-11-21T01:21:30;5.60;99.90
12811;DHT22;6470;47.654;7.896;2022-11-21T01:23:58;6.10;99.90
12811;DHT22;6470;47.654;7.896;2022-11-21T01:26:27;5.70;99.90
12811;DHT22;6470;47.654;7.896;2022-11-21T01:28:53;5.70;99.90
12811;DHT22;6470;47.654;7.896;2022-11-21T01:31:27;6.20;99.90
12811;DHT22;6470;47.654;7.896;2022-11-21T01:33:55;6.10;99.90
12811;DHT22;6470;47.654;7.896;2022-11-21T01:36:23;6.00;99.90
12811;DHT22;6470;47.654;7.896;2022-11-21T01:38:54;5.20;99.90
12811;DHT22;6470;47.654;7.896;2022-11-21T01:41:31;5.90;99.90
12811;DHT22;6470;47.654;7.896;2022-11-21T01:43:59;6.00;99.90
12811;DHT22;6470;47.654;7.896;2022-11-21T01:46:25;6.20;99.90
12811;DHT22;6470;47.654;7.896;2022-11-21T01:49:04;6.60;99.90
12811;DHT22;6470;47.654;7.896;2022-11-21T01:54:35;6.00;99.90
12811;DHT22;6470;47.654;7.896;2022-11-21T02:02:13;3.00;99.90
12811;DHT22;6470;47.654;7.896;2022-11-21T02:04:42;5.90;99.90
12811;DHT22;6470;47.654;7.896;2022-11-21T02:07:10;3.00;99.90
12811;DHT22;6470;47.654;7.896;2022-11-21T02:09:39;5.30;99.90
12811;DHT22;6470;47.654;7.896;2022-11-21T02:12:17;5.80;99.90
12811;DHT22;6470;47.654;7.896;2022-11-21T02:14:44;6.20;99.90
12811;DHT22;6470;47.654;7.896;2022-11-21T02:17:11;5.40;99.90
12811;DHT22;6470;47.654;7.896;2022-11-21T02:25:11;6.20;99.90
12811;DHT22;6470;47.654;7.896;2022-11-21T02:27:37;5.80;99.90
12811;DHT22;6470;47.654;7.896;2022-11-21T02:30:07;5.30;99.90
12811;DHT22;6470;47.654;7.896;2022-11-21T02:32:42;5.90;99.90
12811;DHT22;6470;47.654;7.896;2022-11-21T02:35:13;5.70;99.90
12811;DHT22;6470;47.654;7.896;2022-11-21T02:37:38;5.30;99.90
12811;DHT22;6470;47.654;7.896;2022-11-21T02:40:09;2.90;99.90
12811;DHT22;6470;47.654;7.896;2022-11-21T02:42:44;3.60;99.90
12811;DHT22;6470;47.654;7.896;2022-11-21T02:45:29;6.40;99.90
12811;DHT22;6470;47.654;7.896;2022-11-21T02:47:56;6.30;99.90
12811;DHT22;6470;47.654;7.896;2022-11-21T02:50:25;6.00;99.90
12811;DHT22;6470;47.654;7.896;2022-11-21T02:55:17;5.20;99.90
12811;DHT22;6470;47.654;7.896;2022-11-21T02:57:43;3.20;99.90
12811;DHT22;6470;47.654;7.896;2022-11-21T03:00:10;5.70;99.90
12811;DHT22;6470;47.654;7.896;2022-11-21T03:02:36;6.20;99.90
12811;DHT22;6470;47.654;7.896;2022-11-21T03:05:03;6.10;99.90
12811;DHT22;6470;47.654;7.896;2022-11-21T03:07:29;6.30;99.90
12811;DHT22;6470;47.654;7.896;2022-11-21T03:09:55;5.60;99.90
12811;DHT22;6470;47.654;7.896;2022-11-21T03:14:47;5.60;99.90
12811;DHT22;6470;47.654;7.896;2022-11-21T03:19:38;6.00;99.90
12811;DHT22;6470;47.654;7.896;2022-11-21T03:22:04;5.70;99.90
12811;DHT22;6470;47.654;7.896;2022-11-21T03:24:30;6.40;99.90
12811;DHT22;6470;47.654;7.896;2022-11-21T03:26:56;6.40;99.90
12811;DHT22;6470;47.654;7.896;2022-11-21T03:29:21;5.60;99.90
12811;DHT22;6470;47.654;7.896;2022-11-21T03:31:47;6.70;99.90
12811;DHT22;6470;47.654;7.896;2022-11-21T03:34:13;3.70;99.90
12811;DHT22;6470;47.654;7.896;2022-11-21T03:36:38;6.70;99.90
12811;DHT22;6470;47.654;7.896;2022-11-21T03:39:04;6.10;99.90
12811;DHT22;6470;47.654;7.896;2022-11-21T03:44:06;6.80;99.90
12811;DHT22;6470;47.654;7.896;2022-11-21T03:46:34;6.40;99.90
12811;DHT22;6470;47.654;7.896;2022-11-21T03:49:01;6.50;99.90
12811;DHT22;6470;47.654;7.896;2022-11-21T03:53:53;6.80;99.90
12811;DHT22;6470;47.654;7.896;2022-11-21T03:56:19;6.20;99.90
12811;DHT22;6470;47.654;7.896;2022-11-21T03:58:45;6.60;99.90
12811;DHT22;6470;47.654;7.896;2022-11-21T04:01:11;6.80;99.90
12811;DHT22;6470;47.654;7.896;2022-11-21T04:03:41;6.60;99.90
12811;DHT22;6470;47.654;7.896;2022-11-21T04:06:08;6.20;99.90
12811;DHT22;6470;47.654;7.896;2022-11-21T04:08:34;6.10;99.90
12811;DHT22;6470;47.654;7.896;2022-11-21T04:13:26;6.50;99.90
12811;DHT22;6470;47.654;7.896;2022-11-21T04:15:51;6.20;99.90
12811;DHT22;6470;47.654;7.896;2022-11-21T04:18:17;5.80;99.90
12811;DHT22;6470;47.654;7.896;2022-11-21T04:20:43;6.80;99.90
12811;DHT22;6470;47.654;7.896;2022-11-21T04:25:35;6.60;99.90
12811;DHT22;6470;47.654;7.896;2022-11-21T04:28:02;6.60;99.90
12811;DHT22;6470;47.654;7.896;2022-11-21T04:30:29;6.60;99.90
12811;DHT22;6470;47.654;7.896;2022-11-21T04:32:55;6.60;99.90
12811;DHT22;6470;47.654;7.896;2022-11-21T04:35:23;6.80;99.90
12811;DHT22;6470;47.654;7.896;2022-11-21T04:37:49;6.50;99.90
12811;DHT22;6470;47.654;7.896;2022-11-21T04:40:15;3.40;99.90
12811;DHT22;6470;47.654;7.896;2022-11-21T04:42:43;5.90;99.90
12811;DHT22;6470;47.654;7.896;2022-11-21T04:45:09;6.50;99.90
12811;DHT22;6470;47.654;7.896;2022-11-21T04:47:39;6.70;99.90
12811;DHT22;6470;47.654;7.896;2022-11-21T04:50:06;7.00;99.90
12811;DHT22;6470;47.654;7.896;2022-11-21T04:52:32;6.60;99.90
12811;DHT22;6470;47.654;7.896;2022-11-21T04:57:26;6.80;99.90
12811;DHT22;6470;47.654;7.896;2022-11-21T04:59:52;6.20;99.90
12811;DHT22;6470;47.654;7.896;2022-11-21T05:02:18;3.60;99.90
12811;DHT22;6470;47.654;7.896;2022-11-21T05:04:44;6.60;99.90
12811;DHT22;6470;47.654;7.896;2022-11-21T05:07:10;7.00;99.90
12811;DHT22;6470;47.654;7.896;2022-11-21T05:09:37;7.00;99.90
12811;DHT22;6470;47.654;7.896;2022-11-21T05:12:02;6.90;99.90
12811;DHT22;6470;47.654;7.896;2022-11-21T05:18:09;6.30;99.90
12811;DHT22;6470;47.654;7.896;2022-11-21T05:20:34;6.50;99.90
12811;DHT22;6470;47.654;7.896;2022-11-21T05:23:00;6.80;99.90
12811;DHT22;6470;47.654;7.896;2022-11-21T05:25:26;6.50;99.90
12811;DHT22;6470;47.654;7.896;2022-11-21T05:27:55;4.00;99.90
12811;DHT22;6470;47.654;7.896;2022-11-21T05:30:21;6.70;99.90
12811;DHT22;6470;47.654;7.896;2022-11-21T05:32:47;6.50;99.90
12811;DHT22;6470;47.654;7.896;2022-11-21T05:35:12;6.30;99.90
12811;DHT22;6470;47.654;7.896;2022-11-21T05:37:38;6.40;99.90
12811;DHT22;6470;47.654;7.896;2022-11-21T05:40:04;6.30;99.90
12811;DHT22;6470;47.654;7.896;2022-11-21T05:42:30;3.60;99.90
12811;DHT22;6470;47.654;7.896;2022-11-21T05:45:14;6.20;99.90
12811;DHT22;6470;47.654;7.896;2022-11-21T05:47:40;6.20;99.90
12811;DHT22;6470;47.654;7.896;2022-11-21T05:50:06;6.10;99.90
12811;DHT22;6470;47.654;7.896;2022-11-21T05:52:32;6.10;99.90
12811;DHT22;6470;47.654;7.896;2022-11-21T05:54:58;6.70;99.90
12811;DHT22;6470;47.654;7.896;2022-11-21T05:57:24;6.10;99.90
12811;DHT22;6470;47.654;7.896;2022-11-21T05:59:49;5.60;99.90
12811;DHT22;6470;47.654;7.896;2022-11-21T06:02:15;5.30;99.90
12811;DHT22;6470;47.654;7.896;2022-11-21T06:04:59;5.90;99.90
12811;DHT22;6470;47.654;7.896;2022-11-21T06:07:25;5.60;99.90
12811;DHT22;6470;47.654;7.896;2022-11-21T06:09:50;6.20;99.90
12811;DHT22;6470;47.654;7.896;2022-11-21T06:12:16;5.70;99.90
12811;DHT22;6470;47.654;7.896;2022-11-21T06:14:42;6.50;99.90
12811;DHT22;6470;47.654;7.896;2022-11-21T06:17:07;5.60;99.90
12811;DHT22;6470;47.654;7.896;2022-11-21T06:19:33;3.20;99.90
12811;DHT22;6470;47.654;7.896;2022-11-21T06:21:58;5.50;99.90
12811;DHT22;6470;47.654;7.896;2022-11-21T06:24:24;2.90;99.90
12811;DHT22;6470;47.654;7.896;2022-11-21T06:26:50;6.00;99.90
12811;DHT22;6470;47.654;7.896;2022-11-21T06:29:15;6.00;99.90
12811;DHT22;6470;47.654;7.896;2022-11-21T06:31:41;6.10;99.90
12811;DHT22;6470;47.654;7.896;2022-11-21T06:34:07;6.00;99.90
12811;DHT22;6470;47.654;7.896;2022-11-21T06:36:32;5.50;99.90
12811;DHT22;6470;47.654;7.896;2022-11-21T06:38:59;6.30;99.90
12811;DHT22;6470;47.654;7.896;2022-11-21T06:41:26;6.00;99.90
12811;DHT22;6470;47.654;7.896;2022-11-21T06:43:54;6.80;99.90
12811;DHT22;6470;47.654;7.896;2022-11-21T06:46:20;6.20;99.90
12811;DHT22;6470;47.654;7.896;2022-11-21T06:48:46;6.10;99.90
12811;DHT22;6470;47.654;7.896;2022-11-21T06:51:16;6.20;99.90
12811;DHT22;6470;47.654;7.896;2022-11-21T06:56:09;5.70;99.90
12811;DHT22;6470;47.654;7.896;2022-11-21T06:58:35;6.00;99.90
12811;DHT22;6470;47.654;7.896;2022-11-21T07:01:05;6.10;99.90
12811;DHT22;6470;47.654;7.896;2022-11-21T07:05:59;5.90;99.90
12811;DHT22;6470;47.654;7.896;2022-11-21T07:08:29;5.80;99.90
12811;DHT22;6470;47.654;7.896;2022-11-21T07:10:56;3.20;99.90
12811;DHT22;6470;47.654;7.896;2022-11-21T07:13:24;5.60;99.90
12811;DHT22;6470;47.654;7.896;2022-11-21T07:15:54;5.80;99.90
12811;DHT22;6470;47.654;7.896;2022-11-21T07:18:21;6.60;99.90
12811;DHT22;6470;47.654;7.896;2022-11-21T07:20:47;2.70;99.90
12811;DHT22;6470;47.654;7.896;2022-11-21T07:23:14;6.10;99.90
12811;DHT22;6470;47.654;7.896;2022-11-21T07:25:40;6.70;99.90
12811;DHT22;6470;47.654;7.896;2022-11-21T07:28:07;6.20;99.90
12811;DHT22;6470;47.654;7.896;2022-11-21T07:30:34;3.30;99.90
12811;DHT22;6470;47.654;7.896;2022-11-21T07:33:04;6.70;99.90
12811;DHT22;6470;47.654;7.896;2022-11-21T07:35:31;6.60;99.90
12811;DHT22;6470;47.654;7.896;2022-11-21T07:37:57;6.20;99.90
12811;DHT22;6470;47.654;7.896;2022-11-21T07:40:23;6.40;99.90
12811;DHT22;6470;47.654;7.896;2022-11-21T07:45:16;6.40;99.90
12811;DHT22;6470;47.654;7.896;2022-11-21T07:47:42;6.30;99.90
12811;DHT22;6470;47.654;7.896;2022-11-21T07:50:09;6.20;99.90
12811;DHT22;6470;47.654;7.896;2022-11-21T07:52:35;6.30;99.90
12811;DHT22;6470;47.654;7.896;2022-11-21T07:55:02;6.10;99.90
12811;DHT22;6470;47.654;7.896;2022-11-21T07:57:28;3.20;99.90
12811;DHT22;6470;47.654;7.896;2022-11-21T07:59:54;5.90;99.90
12811;DHT22;6470;47.654;7.896;2022-11-21T08:02:22;6.40;99.90
12811;DHT22;6470;47.654;7.896;2022-11-21T08:04:48;6.10;99.90
12811;DHT22;6470;47.654;7.896;2022-11-21T08:07:15;6.10;99.90
12811;DHT22;6470;47.654;7.896;2022-11-21T08:09:40;6.20;99.90
12811;DHT22;6470;47.654;7.896;2022-11-21T08:12:07;6.50;99.90
12811;DHT22;6470;47.654;7.896;2022-11-21T08:14:33;6.30;99.90
12811;DHT22;6470;47.654;7.896;2022-11-21T08:16:59;6.60;99.90
12811;DHT22;6470;47.654;7.896;2022-11-21T08:19:24;6.80;99.90
12811;DHT22;6470;47.654;7.896;2022-11-21T08:21:50;7.10;99.90
12811;DHT22;6470;47.654;7.896;2022-11-21T08:24:16;6.60;99.90
12811;DHT22;6470;47.654;7.896;2022-11-21T08:26:43;6.90;99.90
12811;DHT22;6470;47.654;7.896;2022-11-21T08:29:10;7.10;99.90
12811;DHT22;6470;47.654;7.896;2022-11-21T08:31:36;7.30;99.90
12811;DHT22;6470;47.654;7.896;2022-11-21T08:36:28;6.90;99.90
12811;DHT22;6470;47.654;7.896;2022-11-21T08:38:53;6.50;99.90
12811;DHT22;6470;47.654;7.896;2022-11-21T08:41:19;6.90;99.90
12811;DHT22;6470;47.654;7.896;2022-11-21T08:44:14;6.00;99.90
12811;DHT22;6470;47.654;7.896;2022-11-21T08:46:40;6.80;99.90
12811;DHT22;6470;47.654;7.896;2022-11-21T08:49:06;7.70;99.90
12811;DHT22;6470;47.654;7.896;2022-11-21T08:51:33;7.20;99.90
12811;DHT22;6470;47.654;7.896;2022-11-21T08:56:26;6.60;99.90
12811;DHT22;6470;47.654;7.896;2022-11-21T08:58:51;7.30;99.90
12811;DHT22;6470;47.654;7.896;2022-11-21T09:01:18;7.30;99.90
12811;DHT22;6470;47.654;7.896;2022-11-21T09:03:44;7.80;99.90
12811;DHT22;6470;47.654;7.896;2022-11-21T09:06:10;7.60;99.90
12811;DHT22;6470;47.654;7.896;2022-11-21T09:08:36;7.40;99.90
12811;DHT22;6470;47.654;7.896;2022-11-21T09:11:04;7.70;99.90
12811;DHT22;6470;47.654;7.896;2022-11-21T09:13:30;7.80;99.90
12811;DHT22;6470;47.654;7.896;2022-11-21T09:15:57;8.50;99.90
12811;DHT22;6470;47.654;7.896;2022-11-21T09:18:41;8.80;99.90
12811;DHT22;6470;47.654;7.896;2022-11-21T09:21:07;8.40;99.90
12811;DHT22;6470;47.654;7.896;2022-11-21T09:23:33;8.40;99.90
12811;DHT22;6470;47.654;7.896;2022-11-21T09:26:00;8.40;99.90
12811;DHT22;6470;47.654;7.896;2022-11-21T09:28:26;8.40;99.90
12811;DHT22;6470;47.654;7.896;2022-11-21T09:30:51;8.70;99.90
12811;DHT22;6470;47.654;7.896;2022-11-21T09:33:17;8.70;99.90
12811;DHT22;6470;47.654;7.896;2022-11-21T09:35:43;8.50;99.90
12811;DHT22;6470;47.654;7.896;2022-11-21T09:38:09;8.60;99.90
12811;DHT22;6470;47.654;7.896;2022-11-21T09:40:35;9.30;99.90
12811;DHT22;6470;47.654;7.896;2022-11-21T09:43:24;8.70;99.90
12811;DHT22;6470;47.654;7.896;2022-11-21T09:46:12;7.20;99.90
12811;DHT22;6470;47.654;7.896;2022-11-21T09:51:13;8.40;99.90
12811;DHT22;6470;47.654;7.896;2022-11-21T09:56:52;8.60;99.90
12811;DHT22;6470;47.654;7.896;2022-11-21T10:01:47;8.10;99.90
12811;DHT22;6470;47.654;7.896;2022-11-21T10:04:12;8.50;99.90
12811;DHT22;6470;47.654;7.896;2022-11-21T10:18:15;8.60;99.90
12811;DHT22;6470;47.654;7.896;2022-11-21T10:29:23;9.20;99.90
12811;DHT22;6470;47.654;7.896;2022-11-21T10:31:55;8.40;99.90
12811;DHT22;6470;47.654;7.896;2022-11-21T10:34:24;9.50;99.90
12811;DHT22;6470;47.654;7.896;2022-11-21T10:39:55;10.00;99.90
12811;DHT22;6470;47.654;7.896;2022-11-21T10:42:47;9.90;99.90
12811;DHT22;6470;47.654;7.896;2022-11-21T10:45:15;9.90;99.90
12811;DHT22;6470;47.654;7.896;2022-11-21T10:47:42;10.30;99.90
12811;DHT22;6470;47.654;7.896;2022-11-21T10:53:02;9.30;99.90
12811;DHT22;6470;47.654;7.896;2022-11-21T10:55:58;9.50;99.90
12811;DHT22;6470;47.654;7.896;2022-11-21T10:58:43;9.40;99.90
12811;DHT22;6470;47.654;7.896;2022-11-21T11:01:23;9.20;99.90
12811;DHT22;6470;47.654;7.896;2022-11-21T11:06:34;9.80;99.90
12811;DHT22;6470;47.654;7.896;2022-11-21T11:09:00;9.20;99.90
12811;DHT22;6470;47.654;7.896;2022-11-21T11:11:26;9.50;99.90
12811;DHT22;6470;47.654;7.896;2022-11-21T11:13:53;9.50;99.90
12811;DHT22;6470;47.654;7.896;2022-11-21T11:16:21;10.20;99.90
12811;DHT22;6470;47.654;7.896;2022-11-21T11:19:05;10.10;99.90
12811;DHT22;6470;47.654;7.896;2022-11-21T11:21:43;10.40;99.90
12811;DHT22;6470;47.654;7.896;2022-11-21T11:26:50;10.10;99.90
12811;DHT22;6470;47.654;7.896;2022-11-21T11:34:14;10.60;99.90
12811;DHT22;6470;47.654;7.896;2022-11-21T11:42:20;9.80;99.90
12811;DHT22;6470;47.654;7.896;2022-11-21T11:45:14;10.60;99.90
12811;DHT22;6470;47.654;7.896;2022-11-21T11:56:21;9.60;99.90
12811;DHT22;6470;47.654;7.896;2022-11-21T12:01:41;9.70;99.90
12811;DHT22;6470;47.654;7.896;2022-11-21T12:20:14;10.20;99.90
12811;DHT22;6470;47.654;7.896;2022-11-21T12:22:40;9.50;99.90
12811;DHT22;6470;47.654;7.896;2022-11-21T12:25:10;9.80;99.90
12811;DHT22;6470;47.654;7.896;2022-11-21T12:27:40;10.40;99.90
12811;DHT22;6470;47.654;7.896;2022-11-21T12:33:05;10.30;99.90
12811;DHT22;6470;47.654;7.896;2022-11-21T12:35:44;10.60;99.90
12811;DHT22;6470;47.654;7.896;2022-11-21T12:46:23;10.10;99.90
12811;DHT22;6470;47.654;7.896;2022-11-21T12:55:18;12.30;99.90
12811;DHT22;6470;47.654;7.896;2022-11-21T13:00:24;12.20;99.90
12811;DHT22;6470;47.654;7.896;2022-11-21T13:05:45;12.00;99.90
12811;DHT22;6470;47.654;7.896;2022-11-21T13:08:17;12.00;99.90
12811;DHT22;6470;47.654;7.896;2022-11-21T13:13:42;12.10;99.90
12811;DHT22;6470;47.654;7.896;2022-11-21T13:16:14;11.70;99.90
12811;DHT22;6470;47.654;7.896;2022-11-21T13:18:45;15.30;99.90
12811;DHT22;6470;47.654;7.896;2022-11-21T13:21:46;12.80;99.90
12811;DHT22;6470;47.654;7.896;2022-11-21T13:32:46;12.10;99.90
12811;DHT22;6470;47.654;7.896;2022-11-21T13:38:03;9.70;99.90
12811;DHT22;6470;47.654;7.896;2022-11-21T13:40:38;10.60;99.90
12811;DHT22;6470;47.654;7.896;2022-11-21T13:45:48;10.80;99.90
12811;DHT22;6470;47.654;7.896;2022-11-21T13:51:02;10.70;99.90
12811;DHT22;6470;47.654;7.896;2022-11-21T13:56:26;9.80;99.90
12811;DHT22;6470;47.654;7.896;2022-11-21T14:02:36;10.00;99.90
12811;DHT22;6470;47.654;7.896;2022-11-21T14:07:47;9.40;99.90
12811;DHT22;6470;47.654;7.896;2022-11-21T14:10:32;9.60;99.90
12811;DHT22;6470;47.654;7.896;2022-11-21T14:12:59;9.50;99.90
12811;DHT22;6470;47.654;7.896;2022-11-21T14:18:21;9.30;99.90
12811;DHT22;6470;47.654;7.896;2022-11-21T14:20:54;9.30;99.90
12811;DHT22;6470;47.654;7.896;2022-11-21T14:23:23;9.30;99.90
12811;DHT22;6470;47.654;7.896;2022-11-21T14:25:51;8.90;99.90
12811;DHT22;6470;47.654;7.896;2022-11-21T14:30:47;9.50;99.90
12811;DHT22;6470;47.654;7.896;2022-11-21T14:33:40;9.20;99.90
12811;DHT22;6470;47.654;7.896;2022-11-21T14:38:44;9.60;99.90
12811;DHT22;6470;47.654;7.896;2022-11-21T14:46:44;9.10;99.90
12811;DHT22;6470;47.654;7.896;2022-11-21T14:52:14;8.90;99.90
12811;DHT22;6470;47.654;7.896;2022-11-21T14:54:53;8.70;99.90
12811;DHT22;6470;47.654;7.896;2022-11-21T14:57:25;8.50;99.90
12811;DHT22;6470;47.654;7.896;2022-11-21T14:59:52;8.50;99.90
12811;DHT22;6470;47.654;7.896;2022-11-21T15:02:24;8.30;99.90
12811;DHT22;6470;47.654;7.896;2022-11-21T15:04:52;8.70;99.90
12811;DHT22;6470;47.654;7.896;2022-11-21T15:07:28;9.00;99.90
12811;DHT22;6470;47.654;7.896;2022-11-21T15:09:54;8.50;99.90
12811;DHT22;6470;47.654;7.896;2022-11-21T15:12:36;8.20;99.90
12811;DHT22;6470;47.654;7.896;2022-11-21T15:17:56;8.20;99.90
12811;DHT22;6470;47.654;7.896;2022-11-21T15:20:22;8.20;99.90
12811;DHT22;6470;47.654;7.896;2022-11-21T15:22:48;8.30;99.90
12811;DHT22;6470;47.654;7.896;2022-11-21T15:25:22;5.30;99.90
12811;DHT22;6470;47.654;7.896;2022-11-21T15:27:50;8.00;99.90
12811;DHT22;6470;47.654;7.896;2022-11-21T15:30:27;8.10;99.90
12811;DHT22;6470;47.654;7.896;2022-11-21T15:33:15;8.10;99.90
12811;DHT22;6470;47.654;7.896;2022-11-21T15:35:52;7.80;99.90
12811;DHT22;6470;47.654;7.896;2022-11-21T15:41:23;4.80;99.90
12811;DHT22;6470;47.654;7.896;2022-11-21T15:46:22;8.40;99.90
12811;DHT22;6470;47.654;7.896;2022-11-21T15:51:24;8.60;99.90
12811;DHT22;6470;47.654;7.896;2022-11-21T15:56:20;5.00;99.90
12811;DHT22;6470;47.654;7.896;2022-11-21T15:58:47;7.50;99.90
12811;DHT22;6470;47.654;7.896;2022-11-21T16:01:24;7.30;99.90
12811;DHT22;6470;47.654;7.896;2022-11-21T16:03:51;7.50;99.90
12811;DHT22;6470;47.654;7.896;2022-11-21T16:06:18;7.10;99.90
12811;DHT22;6470;47.654;7.896;2022-11-21T16:11:17;7.70;99.90
12811;DHT22;6470;47.654;7.896;2022-11-21T16:13:51;7.60;99.90
12811;DHT22;6470;47.654;7.896;2022-11-21T16:16:18;7.40;99.90
12811;DHT22;6470;47.654;7.896;2022-11-21T16:18:44;7.40;99.90
12811;DHT22;6470;47.654;7.896;2022-11-21T16:21:10;7.40;99.90
12811;DHT22;6470;47.654;7.896;2022-11-21T16:23:37;7.10;99.90
12811;DHT22;6470;47.654;7.896;2022-11-21T16:26:04;6.70;99.90
12811;DHT22;6470;47.654;7.896;2022-11-21T16:28:30;7.40;99.90
12811;DHT22;6470;47.654;7.896;2022-11-21T16:30:59;8.00;99.90
12811;DHT22;6470;47.654;7.896;2022-11-21T16:33:25;8.00;99.90
12811;DHT22;6470;47.654;7.896;2022-11-21T16:38:21;8.10;99.90
12811;DHT22;6470;47.654;7.896;2022-11-21T16:43:20;6.60;99.90
12811;DHT22;6470;47.654;7.896;2022-11-21T16:45:46;7.10;99.90
12811;DHT22;6470;47.654;7.896;2022-11-21T16:48:11;7.20;99.90
12811;DHT22;6470;47.654;7.896;2022-11-21T16:50:37;7.20;99.90
12811;DHT22;6470;47.654;7.896;2022-11-21T16:53:03;7.00;99.90
12811;DHT22;6470;47.654;7.896;2022-11-21T16:55:28;7.10;99.90
12811;DHT22;6470;47.654;7.896;2022-11-21T16:57:57;7.00;99.90
12811;DHT22;6470;47.654;7.896;2022-11-21T17:00:24;7.00;99.90
12811;DHT22;6470;47.654;7.896;2022-11-21T17:02:50;7.00;99.90
12811;DHT22;6470;47.654;7.896;2022-11-21T17:05:16;7.30;99.90
12811;DHT22;6470;47.654;7.896;2022-11-21T17:07:43;7.10;99.90
12811;DHT22;6470;47.654;7.896;2022-11-21T17:10:09;7.30;99.90
12811;DHT22;6470;47.654;7.896;2022-11-21T17:12:39;6.50;99.90
12811;DHT22;6470;47.654;7.896;2022-11-21T17:15:07;7.00;99.90
12811;DHT22;6470;47.654;7.896;2022-11-21T17:17:34;6.50;99.90
12811;DHT22;6470;47.654;7.896;2022-11-21T17:20:00;6.90;99.90
12811;DHT22;6470;47.654;7.896;2022-11-21T17:22:26;7.30;99.90
12811;DHT22;6470;47.654;7.896;2022-11-21T17:24:52;5.90;99.90
12811;DHT22;6470;47.654;7.896;2022-11-21T17:27:19;7.20;99.90
12811;DHT22;6470;47.654;7.896;2022-11-21T17:32:11;7.10;99.90
12811;DHT22;6470;47.654;7.896;2022-11-21T17:34:37;6.40;99.90
12811;DHT22;6470;47.654;7.896;2022-11-21T17:37:03;7.30;99.90
12811;DHT22;6470;47.654;7.896;2022-11-21T17:39:29;6.70;99.90
12811;DHT22;6470;47.654;7.896;2022-11-21T17:41:55;3.80;99.90
12811;DHT22;6470;47.654;7.896;2022-11-21T17:44:20;6.40;99.90
12811;DHT22;6470;47.654;7.896;2022-11-21T17:49:12;6.70;99.90
12811;DHT22;6470;47.654;7.896;2022-11-21T17:51:39;6.40;99.90
12811;DHT22;6470;47.654;7.896;2022-11-21T17:54:05;6.70;99.90
12811;DHT22;6470;47.654;7.896;2022-11-21T17:56:34;6.60;99.90
12811;DHT22;6470;47.654;7.896;2022-11-21T17:59:00;6.60;99.90
12811;DHT22;6470;47.654;7.896;2022-11-21T18:01:27;6.20;99.90
12811;DHT22;6470;47.654;7.896;2022-11-21T18:03:55;6.70;99.90
12811;DHT22;6470;47.654;7.896;2022-11-21T18:08:48;6.80;99.90
12811;DHT22;6470;47.654;7.896;2022-11-21T18:11:16;6.80;99.90
12811;DHT22;6470;47.654;7.896;2022-11-21T18:13:46;7.10;99.90
12811;DHT22;6470;47.654;7.896;2022-11-21T18:16:14;7.30;99.90
12811;DHT22;6470;47.654;7.896;2022-11-21T18:21:09;6.80;99.90
12811;DHT22;6470;47.654;7.896;2022-11-21T18:26:03;6.90;99.90
12811;DHT22;6470;47.654;7.896;2022-11-21T18:28:29;5.60;99.90
12811;DHT22;6470;47.654;7.896;2022-11-21T18:31:13;6.70;99.90
12811;DHT22;6470;47.654;7.896;2022-11-21T18:33:40;6.80;99.90
12811;DHT22;6470;47.654;7.896;2022-11-21T18:36:07;6.60;99.90
12811;DHT22;6470;47.654;7.896;2022-11-21T18:38:35;6.60;99.90
12811;DHT22;6470;47.654;7.896;2022-11-21T18:41:12;6.70;99.90
12811;DHT22;6470;47.654;7.896;2022-11-21T18:43:39;6.80;99.90
12811;DHT22;6470;47.654;7.896;2022-11-21T18:46:12;6.70;99.90
12811;DHT22;6470;47.654;7.896;2022-11-21T18:48:39;7.10;99.90
12811;DHT22;6470;47.654;7.896;2022-11-21T18:51:07;6.80;99.90
12811;DHT22;6470;47.654;7.896;2022-11-21T18:53:33;6.80;99.90
12811;DHT22;6470;47.654;7.896;2022-11-21T18:56:07;6.30;99.90
12811;DHT22;6470;47.654;7.896;2022-11-21T18:58:34;6.50;99.90
12811;DHT22;6470;47.654;7.896;2022-11-21T19:01:05;6.80;99.90
12811;DHT22;6470;47.654;7.896;2022-11-21T19:03:31;6.80;99.90
12811;DHT22;6470;47.654;7.896;2022-11-21T19:05:57;7.10;99.90
12811;DHT22;6470;47.654;7.896;2022-11-21T19:08:23;6.60;99.90
12811;DHT22;6470;47.654;7.896;2022-11-21T19:10:49;6.70;99.90
12811;DHT22;6470;47.654;7.896;2022-11-21T19:13:15;6.60;99.90
12811;DHT22;6470;47.654;7.896;2022-11-21T19:15:40;6.60;99.90
12811;DHT22;6470;47.654;7.896;2022-11-21T19:18:08;6.30;99.90
12811;DHT22;6470;47.654;7.896;2022-11-21T19:20:38;6.90;99.90
12811;DHT22;6470;47.654;7.896;2022-11-21T19:23:04;6.50;99.90
12811;DHT22;6470;47.654;7.896;2022-11-21T19:25:30;6.70;99.90
12811;DHT22;6470;47.654;7.896;2022-11-21T19:27:57;5.80;99.90
12811;DHT22;6470;47.654;7.896;2022-11-21T19:30:23;6.80;99.90
12811;DHT22;6470;47.654;7.896;2022-11-21T19:32:49;6.30;99.90
12811;DHT22;6470;47.654;7.896;2022-11-21T19:35:15;6.20;99.90
12811;DHT22;6470;47.654;7.896;2022-11-21T19:37:42;6.50;99.90
12811;DHT22;6470;47.654;7.896;2022-11-21T19:40:09;6.70;99.90
12811;DHT22;6470;47.654;7.896;2022-11-21T19:42:36;6.40;99.90
12811;DHT22;6470;47.654;7.896;2022-11-21T19:45:02;6.70;99.90
12811;DHT22;6470;47.654;7.896;2022-11-21T19:47:28;6.50;99.90
12811;DHT22;6470;47.654;7.896;2022-11-21T19:49:53;6.90;99.90
12811;DHT22;6470;47.654;7.896;2022-11-21T19:52:20;6.80;99.90
12811;DHT22;6470;47.654;7.896;2022-11-21T19:54:46;6.40;99.90
12811;DHT22;6470;47.654;7.896;2022-11-21T19:57:12;7.00;99.90
12811;DHT22;6470;47.654;7.896;2022-11-21T19:59:37;6.60;99.90
12811;DHT22;6470;47.654;7.896;2022-11-21T20:02:03;6.60;99.90
12811;DHT22;6470;47.654;7.896;2022-11-21T20:04:28;7.20;99.90
12811;DHT22;6470;47.654;7.896;2022-11-21T20:06:54;6.80;99.90
12811;DHT22;6470;47.654;7.896;2022-11-21T20:09:22;6.10;99.90
12811;DHT22;6470;47.654;7.896;2022-11-21T20:11:51;6.70;99.90